Time;durP1;ratioP1;P1;durP2;ratioP2;P2;SDS_P1;SDS_P2;PMS_P1;PMS_P2;Temp;Humidity;BMP_temperature;BMP_pressure;BME280_temperature;BME280_humidity;BME280_pressure;Samples;Min_cycle;Max_cycle;Signal;HPM_P1;HPM_P2
2022/04/05 00:02:25;;;;;;;3.37;1.23;;;;;;;;;;5016286;28;20440;-89
2022/04/05 00:04:54;;;;;;;1.70;0.73;;;;;;;;;;5015844;28;20779;-88
2022/04/05 00:07:22;;;;;;;1.87;0.93;;;;;;;;;;5014805;28;20444;-88
2022/04/05 00:09:49;;;;;;;2.27;0.97;;;;;;;;;;5015210;28;20453;-88
2022/04/05 00:12:20;;;;;;;2.53;1.03;;;;;;;;;;5015176;28;20935;-88
2022/04/05 00:14:48;;;;;;;2.60;1.13;;;;;;;;;;5015766;28;20476;-88
2022/04/05 00:17:16;;;;;;;1.33;0.90;;;;;;;;;;5014997;28;20444;-88
2022/04/05 00:19:44;;;;;;;3.10;1.30;;;;;;;;;;5031316;28;20440;-88
2022/04/05 00:22:11;;;;;;;2.33;1.53;;;;;;;;;;5014564;28;20848;-88
2022/04/05 00:24:40;;;;;;;2.33;1.20;;;;;;;;;;5014751;28;20460;-88
2022/04/05 00:27:09;;;;;;;2.90;1.03;;;;;;;;;;4998672;28;20798;-89
2022/04/05 00:29:37;;;;;;;2.40;1.47;;;;;;;;;;5014392;28;20483;-88
2022/04/05 00:32:05;;;;;;;3.70;1.10;;;;;;;;;;5031127;28;20440;-88
2022/04/05 00:34:32;;;;;;;5.17;1.23;;;;;;;;;;5014034;28;20476;-88
2022/04/05 00:37:00;;;;;;;1.77;0.90;;;;;;;;;;4998721;28;20456;-88
2022/04/05 00:39:29;;;;;;;2.27;0.87;;;;;;;;;;5014113;28;20448;-88
2022/04/05 00:41:57;;;;;;;1.30;0.87;;;;;;;;;;5015476;28;20543;-89
2022/04/05 00:44:26;;;;;;;4.33;0.97;;;;;;;;;;5014453;28;20432;-88
2022/04/05 00:46:54;;;;;;;1.83;1.10;;;;;;;;;;4997691;28;20437;-88
2022/04/05 00:49:50;;;;;;;4.17;1.30;;;;;;;;;;5014281;28;20441;-87
2022/04/05 00:52:18;;;;;;;2.60;1.20;;;;;;;;;;5014514;28;20472;-87
2022/04/05 00:54:46;;;;;;;2.30;1.17;;;;;;;;;;5014157;28;20833;-87
2022/04/05 00:57:15;;;;;;;3.60;1.37;;;;;;;;;;4997548;28;20441;-88
2022/04/05 00:59:44;;;;;;;5.50;0.97;;;;;;;;;;5013611;28;20443;-87
2022/04/05 01:02:16;;;;;;;4.03;0.90;;;;;;;;;;5013633;28;20451;-87
2022/04/05 01:04:44;;;;;;;3.30;1.10;;;;;;;;;;5014329;28;20451;-88
2022/04/05 01:07:16;;;;;;;2.87;1.03;;;;;;;;;;4998002;28;20440;-88
2022/04/05 01:09:44;;;;;;;3.13;1.00;;;;;;;;;;5015269;28;20443;-87
2022/04/05 01:12:13;;;;;;;5.43;1.30;;;;;;;;;;5014158;28;20924;-87
2022/04/05 01:14:41;;;;;;;4.57;1.27;;;;;;;;;;4997557;28;20479;-87
2022/04/05 01:17:08;;;;;;;4.40;1.00;;;;;;;;;;5013323;28;20448;-87
2022/04/05 01:19:36;;;;;;;1.83;1.00;;;;;;;;;;5014722;28;20962;-87
2022/04/05 01:22:04;;;;;;;4.47;1.20;;;;;;;;;;5029601;28;20483;-87
2022/04/05 01:24:32;;;;;;;2.53;1.10;;;;;;;;;;5015043;28;20437;-87
2022/04/05 01:27:02;;;;;;;1.53;0.77;;;;;;;;;;5029996;28;20476;-88
2022/04/05 01:29:30;;;;;;;3.83;1.27;;;;;;;;;;5013157;28;20455;-88
2022/04/05 01:32:00;;;;;;;4.87;1.40;;;;;;;;;;5012862;28;20475;-87
2022/04/05 01:34:28;;;;;;;3.03;1.20;;;;;;;;;;5012824;28;20495;-88
2022/04/05 01:36:59;;;;;;;2.23;1.00;;;;;;;;;;5014514;28;20993;-88
2022/04/05 01:39:27;;;;;;;4.97;1.00;;;;;;;;;;4996967;28;20957;-87
2022/04/05 01:41:56;;;;;;;3.30;0.90;;;;;;;;;;5013380;28;20448;-87
2022/04/05 01:44:24;;;;;;;3.00;0.90;;;;;;;;;;4997278;28;20452;-87
2022/04/05 01:46:52;;;;;;;2.80;0.90;;;;;;;;;;4997298;28;20531;-87
2022/04/05 01:49:20;;;;;;;2.33;1.03;;;;;;;;;;5014915;28;20436;-88
2022/04/05 01:51:49;;;;;;;2.37;1.17;;;;;;;;;;5014773;28;20440;-87
2022/04/05 01:54:17;;;;;;;1.53;0.80;;;;;;;;;;5015253;28;20455;-88
2022/04/05 01:56:46;;;;;;;3.27;0.93;;;;;;;;;;5014296;28;20480;-88
2022/04/05 01:59:16;;;;;;;1.80;1.10;;;;;;;;;;4998091;28;20443;-88
2022/04/05 02:01:44;;;;;;;5.83;1.20;;;;;;;;;;5014537;28;20459;-88
2022/04/05 02:04:11;;;;;;;2.00;1.23;;;;;;;;;;4999343;28;20524;-88
2022/04/05 02:06:39;;;;;;;2.17;1.00;;;;;;;;;;5029995;28;20447;-87
2022/04/05 02:09:07;;;;;;;2.60;1.10;;;;;;;;;;5018104;28;20471;-87
2022/04/05 02:11:43;;;;;;;3.10;1.00;;;;;;;;;;5013203;28;20436;-87
2022/04/05 02:14:16;;;;;;;3.30;1.13;;;;;;;;;;4996730;28;20472;-88
2022/04/05 02:16:44;;;;;;;1.67;0.97;;;;;;;;;;5014231;28;20491;-87
2022/04/05 02:19:12;;;;;;;2.60;0.90;;;;;;;;;;5013895;28;20444;-88
2022/04/05 02:21:40;;;;;;;6.20;1.03;;;;;;;;;;4996373;28;20511;-87
2022/04/05 02:24:07;;;;;;;2.50;1.07;;;;;;;;;;4997316;28;20443;-87
2022/04/05 02:26:35;;;;;;;4.00;0.90;;;;;;;;;;5012850;28;20872;-88
2022/04/05 02:29:03;;;;;;;2.20;1.20;;;;;;;;;;5013951;28;20440;-87
2022/04/05 02:31:31;;;;;;;3.13;1.30;;;;;;;;;;4996630;28;20969;-88
2022/04/05 02:34:01;;;;;;;7.80;1.10;;;;;;;;;;4996591;28;20455;-91
2022/04/05 02:36:30;;;;;;;2.87;1.20;;;;;;;;;;5012438;28;20508;-88
2022/04/05 02:38:58;;;;;;;1.80;0.90;;;;;;;;;;5012462;28;20931;-87
2022/04/05 02:41:26;;;;;;;1.87;0.90;;;;;;;;;;5012784;28;20451;-87
2022/04/05 02:43:54;;;;;;;3.10;1.30;;;;;;;;;;5012562;28;20436;-88
2022/04/05 02:46:22;;;;;;;2.60;1.00;;;;;;;;;;5012510;28;20448;-88
2022/04/05 02:48:54;;;;;;;2.33;1.40;;;;;;;;;;5013048;28;20420;-88
2022/04/05 02:51:23;;;;;;;2.53;1.17;;;;;;;;;;4996872;28;20440;-88
2022/04/05 02:53:50;;;;;;;1.57;0.90;;;;;;;;;;4996316;28;20429;-88
2022/04/05 02:56:18;;;;;;;4.03;0.97;;;;;;;;;;4996008;28;20522;-88
2022/04/05 02:58:48;;;;;;;2.07;1.00;;;;;;;;;;5013638;28;20459;-88
2022/04/05 03:01:16;;;;;;;1.53;1.20;;;;;;;;;;5013307;28;20444;-88
2022/04/05 03:03:44;;;;;;;3.70;0.90;;;;;;;;;;5012906;28;20425;-88
2022/04/05 03:06:14;;;;;;;2.80;1.17;;;;;;;;;;4996451;28;20436;-87
2022/04/05 03:08:42;;;;;;;7.63;1.83;;;;;;;;;;5012844;28;20433;-88
2022/04/05 03:11:10;;;;;;;2.70;1.00;;;;;;;;;;4995976;28;20444;-88
2022/04/05 03:13:39;;;;;;;1.83;1.10;;;;;;;;;;4997909;28;20439;-88
2022/04/05 03:16:07;;;;;;;3.07;1.13;;;;;;;;;;5016036;28;20486;-88
2022/04/05 03:18:35;;;;;;;2.17;1.20;;;;;;;;;;5016071;28;20442;-88
2022/04/05 03:21:02;;;;;;;3.93;1.40;;;;;;;;;;4999345;28;20503;-88
2022/04/05 03:23:30;;;;;;;2.70;1.17;;;;;;;;;;5015648;28;20447;-88
2022/04/05 03:25:59;;;;;;;1.70;1.10;;;;;;;;;;4999698;28;20432;-88
2022/04/05 03:28:27;;;;;;;1.90;0.87;;;;;;;;;;5016082;28;20432;-88
2022/04/05 03:30:54;;;;;;;2.37;1.00;;;;;;;;;;4999770;28;20440;-88
2022/04/05 03:33:22;;;;;;;2.20;1.17;;;;;;;;;;5003600;28;20506;-87
2022/04/05 03:35:51;;;;;;;2.20;1.40;;;;;;;;;;5014790;28;20571;-87
2022/04/05 03:38:18;;;;;;;2.90;1.17;;;;;;;;;;5015423;28;20443;-88
2022/04/05 03:40:46;;;;;;;1.30;1.00;;;;;;;;;;5014893;28;20443;-88
2022/04/05 03:43:14;;;;;;;3.60;0.90;;;;;;;;;;5015381;28;20490;-89
2022/04/05 03:45:42;;;;;;;2.33;0.90;;;;;;;;;;5015777;28;20431;-89
2022/04/05 03:48:10;;;;;;;2.23;0.93;;;;;;;;;;4999264;28;20441;-89
2022/04/05 03:50:39;;;;;;;2.30;1.03;;;;;;;;;;4999397;28;20479;-88
2022/04/05 03:53:07;;;;;;;1.60;0.83;;;;;;;;;;4999747;28;20429;-88
2022/04/05 03:55:37;;;;;;;2.60;0.80;;;;;;;;;;5015278;28;20538;-88
2022/04/05 03:58:05;;;;;;;4.90;1.23;;;;;;;;;;5016285;28;20494;-89
2022/04/05 04:00:33;;;;;;;2.47;1.10;;;;;;;;;;5015455;28;20860;-89
2022/04/05 04:03:01;;;;;;;3.33;0.80;;;;;;;;;;5016376;28;20432;-89
2022/04/05 04:05:29;;;;;;;1.60;1.00;;;;;;;;;;5015299;28;20515;-89
2022/04/05 04:07:57;;;;;;;3.20;1.10;;;;;;;;;;5015916;28;20483;-89
2022/04/05 04:10:24;;;;;;;1.70;0.90;;;;;;;;;;5014429;28;20456;-89
2022/04/05 04:12:52;;;;;;;2.00;0.90;;;;;;;;;;4999035;28;20444;-88
2022/04/05 04:15:20;;;;;;;2.80;0.93;;;;;;;;;;4999252;28;20464;-89
2022/04/05 04:17:48;;;;;;;2.90;0.77;;;;;;;;;;5016277;28;20953;-89
2022/04/05 04:20:16;;;;;;;1.13;0.60;;;;;;;;;;5012426;28;20452;-88
2022/04/05 04:22:44;;;;;;;1.93;0.80;;;;;;;;;;4979638;28;20442;-89
2022/04/05 04:25:12;;;;;;;1.97;0.90;;;;;;;;;;4979446;28;20445;-89
2022/04/05 04:27:41;;;;;;;2.80;0.90;;;;;;;;;;4996808;28;20476;-89
2022/04/05 04:30:09;;;;;;;2.17;0.70;;;;;;;;;;4979122;28;20445;-89
2022/04/05 04:32:37;;;;;;;1.67;0.70;;;;;;;;;;4963560;28;20948;-88
2022/04/05 04:35:07;;;;;;;3.90;0.60;;;;;;;;;;4996054;28;20445;-88
2022/04/05 04:37:35;;;;;;;1.20;0.63;;;;;;;;;;4979085;28;20887;-88
2022/04/05 04:40:04;;;;;;;2.80;0.70;;;;;;;;;;4963218;28;20449;-88
2022/04/05 04:42:33;;;;;;;2.50;0.77;;;;;;;;;;4963559;28;20443;-88
2022/04/05 04:45:01;;;;;;;1.30;0.60;;;;;;;;;;4996345;28;20960;-88
2022/04/05 04:47:28;;;;;;;1.20;0.80;;;;;;;;;;4996060;28;20438;-87
2022/04/05 04:49:56;;;;;;;2.03;0.63;;;;;;;;;;4962733;28;20524;-89
2022/04/05 04:52:24;;;;;;;1.57;0.70;;;;;;;;;;4962411;28;20441;-88
2022/04/05 04:54:52;;;;;;;1.20;0.60;;;;;;;;;;4995834;28;20444;-88
2022/04/05 04:57:22;;;;;;;1.73;0.53;;;;;;;;;;4978859;28;20496;-88
2022/04/05 04:59:49;;;;;;;1.63;0.87;;;;;;;;;;4995494;28;20441;-88
2022/04/05 05:02:17;;;;;;;1.80;0.60;;;;;;;;;;4978651;28;20472;-89
2022/04/05 05:04:47;;;;;;;1.47;0.60;;;;;;;;;;4962785;28;20438;-88
2022/04/05 05:07:15;;;;;;;1.87;0.90;;;;;;;;;;4978656;28;20504;-89
2022/04/05 05:09:42;;;;;;;2.23;0.87;;;;;;;;;;4977979;28;20847;-89
2022/04/05 05:12:10;;;;;;;1.00;0.50;;;;;;;;;;4978613;28;20496;-89
2022/04/05 05:14:38;;;;;;;2.07;0.50;;;;;;;;;;4962007;28;20449;-89
2022/04/05 05:17:06;;;;;;;2.30;0.50;;;;;;;;;;4978551;28;20882;-89
2022/04/05 05:19:34;;;;;;;1.30;0.63;;;;;;;;;;4962777;28;20438;-89
2022/04/05 05:22:03;;;;;;;1.30;0.60;;;;;;;;;;4990829;28;20847;-89
2022/04/05 05:24:30;;;;;;;1.47;0.70;;;;;;;;;;4998033;28;20490;-88
2022/04/05 05:26:58;;;;;;;1.00;0.50;;;;;;;;;;5013490;28;20564;-89
2022/04/05 05:29:26;;;;;;;1.20;0.60;;;;;;;;;;5014895;28;20816;-88
2022/04/05 05:31:55;;;;;;;1.00;0.50;;;;;;;;;;4997895;28;20425;-88
2022/04/05 05:34:24;;;;;;;1.60;0.60;;;;;;;;;;5029798;28;20793;-88
2022/04/05 05:36:52;;;;;;;1.00;0.40;;;;;;;;;;5032525;28;20566;-88
2022/04/05 05:39:19;;;;;;;4.10;0.60;;;;;;;;;;5034276;28;20439;-88
2022/04/05 05:41:47;;;;;;;2.60;0.60;;;;;;;;;;5033303;28;20435;-89
2022/04/05 05:44:15;;;;;;;2.30;0.83;;;;;;;;;;5033097;28;20510;-88
2022/04/05 05:46:43;;;;;;;1.47;0.53;;;;;;;;;;5032886;28;20505;-89
2022/04/05 05:49:11;;;;;;;1.30;0.70;;;;;;;;;;5016853;28;20439;-89
2022/04/05 05:51:39;;;;;;;1.10;0.60;;;;;;;;;;5017075;28;20857;-88
2022/04/05 05:54:07;;;;;;;1.70;0.73;;;;;;;;;;5032975;28;20439;-89
2022/04/05 05:56:35;;;;;;;1.77;0.63;;;;;;;;;;5033308;28;20873;-88
2022/04/05 05:59:04;;;;;;;1.67;0.50;;;;;;;;;;5034164;28;20439;-88
2022/04/05 06:01:33;;;;;;;1.30;0.80;;;;;;;;;;5037281;28;20432;-87
2022/04/05 06:04:02;;;;;;;1.30;0.50;;;;;;;;;;5050485;28;20431;-87
2022/04/05 06:06:30;;;;;;;1.60;0.50;;;;;;;;;;5046786;28;20439;-89
2022/04/05 06:08:58;;;;;;;1.30;0.50;;;;;;;;;;5015892;28;20447;-88
2022/04/05 06:11:26;;;;;;;3.20;0.50;;;;;;;;;;5033081;28;20914;-89
2022/04/05 06:13:53;;;;;;;1.07;0.50;;;;;;;;;;5033373;28;20498;-89
2022/04/05 06:16:20;;;;;;;2.90;2.20;;;;;;;;;;5032772;28;20472;-89
2022/04/05 06:18:48;;;;;;;1.10;0.60;;;;;;;;;;5033489;28;20953;-89
2022/04/05 06:21:16;;;;;;;1.57;0.60;;;;;;;;;;5015842;28;21009;-89
2022/04/05 06:23:44;;;;;;;1.10;0.50;;;;;;;;;;5016512;28;20442;-89
2022/04/05 06:26:12;;;;;;;1.30;0.70;;;;;;;;;;5016975;28;20428;-89
2022/04/05 06:28:40;;;;;;;1.23;0.60;;;;;;;;;;5032756;28;20507;-89
2022/04/05 06:31:09;;;;;;;1.90;0.60;;;;;;;;;;5032040;28;20993;-89
2022/04/05 06:33:37;;;;;;;3.97;0.63;;;;;;;;;;5032332;28;20856;-88
2022/04/05 06:36:05;;;;;;;1.30;0.60;;;;;;;;;;5032809;28;20782;-89
2022/04/05 06:38:33;;;;;;;1.10;0.60;;;;;;;;;;5033377;28;20424;-89
2022/04/05 06:41:06;;;;;;;1.27;0.80;;;;;;;;;;5032575;28;20439;-89
2022/04/05 06:43:35;;;;;;;1.20;0.50;;;;;;;;;;5016714;28;20481;-89
2022/04/05 06:46:04;;;;;;;1.23;0.57;;;;;;;;;;5033015;28;20514;-88
2022/04/05 06:48:33;;;;;;;1.67;0.53;;;;;;;;;;5037168;28;20820;-88
2022/04/05 06:51:00;;;;;;;1.73;0.60;;;;;;;;;;5020009;28;20812;-89
2022/04/05 06:53:30;;;;;;;1.13;0.53;;;;;;;;;;5036861;28;20435;-89
2022/04/05 06:55:58;;;;;;;1.53;0.53;;;;;;;;;;5020298;28;20455;-90
2022/04/05 06:58:27;;;;;;;1.17;0.60;;;;;;;;;;5014228;28;20459;-88
2022/04/05 07:00:55;;;;;;;1.67;0.60;;;;;;;;;;5024203;28;20973;-88
2022/04/05 07:03:23;;;;;;;1.20;0.50;;;;;;;;;;5019525;28;20489;-88
2022/04/05 07:05:52;;;;;;;1.10;0.50;;;;;;;;;;5004069;28;20444;-89
2022/04/05 07:08:21;;;;;;;2.77;0.80;;;;;;;;;;5016028;28;20462;-89
2022/04/05 07:10:51;;;;;;;1.10;0.60;;;;;;;;;;5016716;28;20444;-89
2022/04/05 07:13:19;;;;;;;2.00;0.67;;;;;;;;;;5015760;28;20444;-89
2022/04/05 07:15:46;;;;;;;1.20;0.50;;;;;;;;;;5015588;28;20448;-89
2022/04/05 07:18:14;;;;;;;1.77;0.53;;;;;;;;;;5017186;28;20565;-89
2022/04/05 07:20:41;;;;;;;1.37;0.57;;;;;;;;;;5035262;28;20498;-89
2022/04/05 07:23:08;;;;;;;1.17;0.50;;;;;;;;;;5022582;28;20502;-89
2022/04/05 07:25:36;;;;;;;1.40;1.03;;;;;;;;;;5000380;28;20972;-89
2022/04/05 07:28:04;;;;;;;4.33;1.03;;;;;;;;;;5018125;28;20440;-89
2022/04/05 07:30:32;;;;;;;1.10;0.60;;;;;;;;;;5000160;28;20444;-90
2022/04/05 07:33:01;;;;;;;1.73;0.80;;;;;;;;;;5017443;28;20471;-90
2022/04/05 07:35:28;;;;;;;2.50;0.63;;;;;;;;;;5032844;28;20531;-89
2022/04/05 07:37:57;;;;;;;2.73;1.00;;;;;;;;;;5016899;28;20566;-90
2022/04/05 07:40:27;;;;;;;2.40;0.67;;;;;;;;;;4999415;28;20812;-90
2022/04/05 07:42:56;;;;;;;1.00;0.50;;;;;;;;;;5016885;28;20535;-91
2022/04/05 07:45:23;;;;;;;1.80;0.60;;;;;;;;;;5009378;28;20447;-88
2022/04/05 07:47:51;;;;;;;1.53;0.70;;;;;;;;;;5038185;28;20471;-90
2022/04/05 07:50:18;;;;;;;1.60;0.70;;;;;;;;;;5038376;28;20854;-90
2022/04/05 07:52:47;;;;;;;2.50;0.70;;;;;;;;;;5038892;28;20436;-88
2022/04/05 07:55:14;;;;;;;1.27;0.60;;;;;;;;;;5036067;28;21005;-90
2022/04/05 07:57:46;;;;;;;1.73;0.87;;;;;;;;;;5012721;28;20470;-89
2022/04/05 08:00:14;;;;;;;1.80;0.63;;;;;;;;;;5016983;28;20459;-88
2022/04/05 08:02:42;;;;;;;1.40;0.70;;;;;;;;;;5017849;28;20952;-89
2022/04/05 08:05:14;;;;;;;1.80;0.70;;;;;;;;;;5034067;28;20440;-90
2022/04/05 08:07:42;;;;;;;1.87;0.70;;;;;;;;;;5018032;28;20447;-89
2022/04/05 08:10:10;;;;;;;1.97;0.70;;;;;;;;;;5034088;28;20443;-90
2022/04/05 08:12:42;;;;;;;1.40;0.73;;;;;;;;;;5017503;28;20816;-89
2022/04/05 08:15:18;;;;;;;1.90;0.80;;;;;;;;;;5011448;28;21013;-89
2022/04/05 08:17:46;;;;;;;2.33;0.80;;;;;;;;;;4998170;28;20488;-89
2022/04/05 08:20:13;;;;;;;3.27;0.70;;;;;;;;;;5012438;28;20440;-88
2022/04/05 08:23:04;;;;;;;3.77;0.53;;;;;;;;;;4979153;28;20487;-88
2022/04/05 08:25:32;;;;;;;5.10;1.10;;;;;;;;;;4978998;28;20516;-88
2022/04/05 08:28:00;;;;;;;3.70;1.10;;;;;;;;;;4962689;28;21007;-88
2022/04/05 08:30:31;;;;;;;3.40;0.90;;;;;;;;;;4979531;28;20871;-89
2022/04/05 08:33:01;;;;;;;1.40;0.73;;;;;;;;;;4978366;28;20944;-89
2022/04/05 08:35:28;;;;;;;4.50;1.03;;;;;;;;;;4978535;28;20452;-89
2022/04/05 08:37:58;;;;;;;5.90;0.83;;;;;;;;;;4962470;28;20481;-88
2022/04/05 08:40:26;;;;;;;3.50;0.90;;;;;;;;;;4978057;28;20483;-89
2022/04/05 08:42:54;;;;;;;1.70;0.90;;;;;;;;;;4962533;28;20442;-89
2022/04/05 08:45:22;;;;;;;2.70;1.67;;;;;;;;;;4962484;28;20449;-89
2022/04/05 08:47:53;;;;;;;1.60;0.80;;;;;;;;;;4961957;28;20960;-89
2022/04/05 08:50:22;;;;;;;4.20;2.27;;;;;;;;;;4978235;28;20464;-89
2022/04/05 08:52:54;;;;;;;3.00;1.03;;;;;;;;;;4992998;28;20444;-89
2022/04/05 08:55:22;;;;;;;2.13;0.90;;;;;;;;;;4997592;28;20471;-89
2022/04/05 08:57:51;;;;;;;6.10;1.47;;;;;;;;;;4997619;28;20551;-89
2022/04/05 09:00:22;;;;;;;1.93;0.90;;;;;;;;;;4997540;28;20524;-89
2022/04/05 09:03:00;;;;;;;1.37;0.67;;;;;;;;;;4997346;28;20539;-89
2022/04/05 09:05:30;;;;;;;3.60;1.10;;;;;;;;;;4981022;28;20444;-89
2022/04/05 09:08:16;;;;;;;3.23;0.87;;;;;;;;;;5014376;28;20506;-89
2022/04/05 09:10:44;;;;;;;4.30;1.00;;;;;;;;;;4996372;28;20437;-89
2022/04/05 09:13:16;;;;;;;4.57;1.40;;;;;;;;;;4981400;28;20483;-88
2022/04/05 09:15:47;;;;;;;3.60;1.10;;;;;;;;;;4980944;28;20448;-89
2022/04/05 09:18:25;;;;;;;2.53;1.10;;;;;;;;;;4997037;28;20487;-89
2022/04/05 09:20:53;;;;;;;3.30;1.37;;;;;;;;;;5007013;28;20840;-89
2022/04/05 09:23:27;;;;;;;2.17;1.00;;;;;;;;;;5016527;28;20451;-89
2022/04/05 09:25:58;;;;;;;9.80;1.07;;;;;;;;;;5032712;28;20438;-89
2022/04/05 09:28:50;;;;;;;2.80;1.03;;;;;;;;;;5034155;28;20957;-89
2022/04/05 09:31:19;;;;;;;6.43;1.33;;;;;;;;;;5032614;28;20513;-89
2022/04/05 09:34:05;;;;;;;2.37;1.27;;;;;;;;;;5016931;28;20511;-89
2022/04/05 09:36:43;;;;;;;3.93;1.30;;;;;;;;;;5033881;28;20842;-89
2022/04/05 09:39:11;;;;;;;5.50;1.40;;;;;;;;;;5032826;28;20447;-89
2022/04/05 09:41:41;;;;;;;3.53;1.27;;;;;;;;;;5016598;28;20445;-90
2022/04/05 09:44:11;;;;;;;2.63;0.97;;;;;;;;;;5034040;28;20436;-89
2022/04/05 09:46:42;;;;;;;2.63;1.20;;;;;;;;;;5033395;28;20466;-89
2022/04/05 09:49:12;;;;;;;5.57;1.17;;;;;;;;;;5016678;28;20435;-89
2022/04/05 09:51:41;;;;;;;9.60;1.40;;;;;;;;;;5032485;28;20972;-89
2022/04/05 09:54:17;;;;;;;4.43;1.07;;;;;;;;;;5017125;28;20448;-89
2022/04/05 09:56:47;;;;;;;2.10;1.10;;;;;;;;;;5032539;28;20450;-89
2022/04/05 09:59:22;;;;;;;3.83;0.93;;;;;;;;;;5033009;28;20792;-89
2022/04/05 10:01:56;;;;;;;5.10;1.27;;;;;;;;;;5032562;28;20799;-88
2022/04/05 10:04:24;;;;;;;5.70;1.40;;;;;;;;;;5017171;28;20505;-89
2022/04/05 10:06:54;;;;;;;1.40;0.80;;;;;;;;;;5016724;28;20435;-88
2022/04/05 10:09:28;;;;;;;6.80;1.50;;;;;;;;;;5033128;28;20447;-88
2022/04/05 10:11:58;;;;;;;3.33;1.03;;;;;;;;;;5032747;28;20431;-89
2022/04/05 10:14:27;;;;;;;7.00;1.37;;;;;;;;;;5016312;28;20470;-89
2022/04/05 10:16:55;;;;;;;3.90;1.37;;;;;;;;;;5032337;28;20448;-89
2022/04/05 10:19:23;;;;;;;4.13;1.23;;;;;;;;;;5032268;28;20447;-89
2022/04/05 10:21:52;;;;;;;2.47;1.23;;;;;;;;;;5031797;28;20889;-89
2022/04/05 10:24:21;;;;;;;4.00;1.00;;;;;;;;;;5027091;28;20444;-89
2022/04/05 10:26:53;;;;;;;2.77;0.87;;;;;;;;;;5036256;28;20497;-89
2022/04/05 10:29:21;;;;;;;4.90;1.40;;;;;;;;;;5033304;28;20810;-89
2022/04/05 10:32:08;;;;;;;3.30;1.13;;;;;;;;;;5033004;28;20450;-89
2022/04/05 10:34:46;;;;;;;1.70;0.80;;;;;;;;;;5031942;28;20447;-88
2022/04/05 10:37:17;;;;;;;3.63;1.40;;;;;;;;;;5015893;28;20480;-88
2022/04/05 10:39:59;;;;;;;8.20;1.40;;;;;;;;;;5031516;28;20440;-88
2022/04/05 10:42:33;;;;;;;5.60;1.40;;;;;;;;;;5031715;28;20446;-89
2022/04/05 10:45:19;;;;;;;3.00;1.17;;;;;;;;;;5033241;28;20431;-88
2022/04/05 10:48:05;;;;;;;3.13;1.00;;;;;;;;;;5033055;28;20443;-88
2022/04/05 10:50:57;;;;;;;5.43;1.20;;;;;;;;;;5032918;28;20439;-89
2022/04/05 10:53:36;;;;;;;2.53;0.90;;;;;;;;;;5031816;28;20439;-89
2022/04/05 10:56:08;;;;;;;1.67;1.00;;;;;;;;;;5015656;28;20447;-88
2022/04/05 10:58:39;;;;;;;2.33;0.90;;;;;;;;;;5031727;28;20495;-89
2022/04/05 11:01:17;;;;;;;4.07;1.03;;;;;;;;;;5032851;28;20447;-91
2022/04/05 11:04:03;;;;;;;4.60;1.27;;;;;;;;;;5015175;28;20439;-89
2022/04/05 11:06:49;;;;;;;6.57;1.43;;;;;;;;;;5031409;28;20442;-88
2022/04/05 11:09:26;;;;;;;4.43;1.33;;;;;;;;;;5032099;28;20505;-88
2022/04/05 11:11:54;;;;;;;5.10;1.20;;;;;;;18.28;nan;100628.44;5031773;28;20443;-88
2022/04/05 11:14:50;;;;;;;6.60;1.37;;;;;;;18.47;nan;100626.34;5031875;28;20439;-89
2022/04/05 11:17:22;;;;;;;8.23;1.30;;;;;;;18.39;nan;100610.13;5017779;28;20986;-89
2022/04/05 11:19:52;;;;;;;3.93;1.53;;;;;;;18.36;nan;100636.38;5025971;28;20455;-88
2022/04/05 11:22:20;;;;;;;1.57;1.03;;;;;;;18.30;nan;100640.13;5031877;28;20475;-87
2022/04/05 11:25:07;;;;;;;3.37;1.33;;;;;;;18.47;nan;100641.00;5031850;28;20448;-89
2022/04/05 11:27:44;;;;;;;2.00;1.00;;;;;;;18.52;nan;100641.09;5032924;28;20447;-89
2022/04/05 11:30:28;;;;;;;3.07;1.00;;;;;;;18.35;nan;100640.22;5022147;28;20451;-88
2022/04/05 11:33:26;;;;;;;3.40;0.93;;;;;;;18.23;nan;100642.22;5038959;28;20465;-89
2022/04/05 11:35:59;;;;;;;5.20;1.23;;;;;;;18.08;nan;100636.38;5039870;28;20458;-90
2022/04/05 11:38:29;;;;;;;2.53;0.80;;;;;;;18.04;nan;100641.56;5021249;28;21016;-89
2022/04/05 11:41:37;;;;;;;3.90;1.30;;;;;;;18.04;nan;100640.72;5036853;28;20447;-89
2022/04/05 11:44:06;;;;;;;4.73;1.50;;;;;;;18.09;nan;100654.66;5033207;28;20490;-89
2022/04/05 11:46:35;;;;;;;9.87;3.80;;;;;;;18.15;nan;100648.97;5004772;28;20467;-90
2022/04/05 11:49:07;;;;;;;7.23;3.27;;;;;;;18.17;nan;100632.97;5036242;28;20451;-90
2022/04/05 11:51:36;;;;;;;5.40;2.07;;;;;;;18.39;nan;100648.88;5004844;28;20443;-90
2022/04/05 11:54:17;;;;;;;3.30;1.30;;;;;;;18.46;nan;100644.03;5020085;28;20511;-90
2022/04/05 11:56:45;;;;;;;3.27;0.90;;;;;;;18.53;nan;100640.00;5016093;28;20968;-89
2022/04/05 11:59:17;;;;;;;4.70;1.10;;;;;;;18.69;nan;100654.16;5003667;28;20492;-89
2022/04/05 12:01:49;;;;;;;3.10;1.17;;;;;;;18.57;nan;100643.97;4983743;28;20440;-89
2022/04/05 12:04:22;;;;;;;5.93;1.50;;;;;;;18.50;nan;100662.66;5017013;28;20447;-89
2022/04/05 12:06:55;;;;;;;3.47;1.37;;;;;;;18.52;nan;100648.56;5034611;28;20923;-90
2022/04/05 12:09:24;;;;;;;5.00;1.50;;;;;;;18.67;nan;100643.31;5002601;28;20448;-90
2022/04/05 12:11:52;;;;;;;10.40;1.50;;;;;;;18.62;nan;100651.56;5003527;28;20535;-90
2022/04/05 12:14:24;;;;;;;3.93;1.90;;;;;;;18.34;nan;100657.06;5002787;28;20492;-90
2022/04/05 12:17:02;;;;;;;4.47;1.70;;;;;;;18.08;nan;100658.50;5003394;28;20582;-89
2022/04/05 12:19:34;;;;;;;7.43;2.30;;;;;;;17.94;nan;100647.72;5017052;28;20889;-90
2022/04/05 12:22:07;;;;;;;4.33;1.50;;;;;;;17.87;nan;100657.25;5000677;28;20475;-89
2022/04/05 12:24:50;;;;;;;7.77;1.50;;;;;;;17.70;nan;100657.16;5003451;28;20528;-90
2022/04/05 12:27:23;;;;;;;3.40;1.13;;;;;;;17.49;nan;100660.50;5000762;28;20456;-89
2022/04/05 12:29:58;;;;;;;4.10;1.40;;;;;;;17.45;nan;100653.78;5017568;28;20475;-90
2022/04/05 12:32:37;;;;;;;4.57;1.20;;;;;;;17.48;nan;100659.66;5000486;28;20452;-89
2022/04/05 12:35:07;;;;;;;2.77;0.90;;;;;;;17.41;nan;100650.66;5000449;28;20527;-90
2022/04/05 12:37:36;;;;;;;2.83;1.90;;;;;;;17.46;nan;100666.53;5001162;28;20966;-89
2022/04/05 12:40:04;;;;;;;6.50;1.33;;;;;;;17.38;nan;100678.75;4985758;28;20528;-89
2022/04/05 12:42:39;;;;;;;9.43;2.10;;;;;;;17.22;nan;100672.03;4922426;29;20455;-89
2022/04/05 12:45:08;;;;;;;10.20;2.90;;;;;;;17.06;nan;100681.03;4906171;29;20888;-89
2022/04/05 12:47:47;;;;;;;4.40;2.20;;;;;;;16.83;nan;100678.22;4922432;29;20452;-89
2022/04/05 12:50:17;;;;;;;7.17;2.00;;;;;;;16.74;nan;100685.19;4924402;29;20455;-90
2022/04/05 12:52:45;;;;;;;4.90;2.07;;;;;;;16.65;nan;100679.13;4907532;29;20467;-90
2022/04/05 12:55:18;;;;;;;10.23;3.00;;;;;;;16.67;nan;100688.03;4907705;29;20977;-90
2022/04/05 12:57:49;;;;;;;8.03;3.37;;;;;;;16.64;nan;100679.38;4909236;29;20448;-90
2022/04/05 13:00:24;;;;;;;8.37;3.40;;;;;;;16.63;nan;100678.53;4953062;28;20455;-89
2022/04/05 13:02:59;;;;;;;14.20;4.43;;;;;;;16.67;nan;100687.19;5000177;28;20962;-90
2022/04/05 13:08:27;;;;;;;11.00;4.30;;;;;;;16.69;nan;100683.13;5016577;28;20456;-90
2022/04/05 13:10:56;;;;;;;8.73;2.67;;;;;;;16.79;nan;100685.28;5000591;28;20445;-90
2022/04/05 13:13:25;;;;;;;8.90;2.70;;;;;;;16.98;nan;100684.13;5015564;28;20531;-90
2022/04/05 13:16:02;;;;;;;8.80;3.00;;;;;;;17.15;nan;100685.09;5016983;28;20521;-90
2022/04/05 13:18:34;;;;;;;7.53;3.50;;;;;;;17.18;nan;100681.88;5017789;28;20467;-90
2022/04/05 13:21:06;;;;;;;12.67;3.00;;;;;;;17.18;nan;100686.56;5017855;28;20547;-90
2022/04/05 13:23:37;;;;;;;6.77;2.70;;;;;;;17.12;nan;100677.31;5002541;28;20451;-90
2022/04/05 13:26:22;;;;;;;7.70;2.27;;;;;;;17.05;nan;100675.75;5001932;28;20455;-91
2022/04/05 13:29:08;;;;;;;6.73;2.47;;;;;;;17.01;nan;100680.06;4999871;28;20453;-90
2022/04/05 13:31:51;;;;;;;12.43;4.07;;;;;;;17.03;nan;100678.75;5017491;28;21010;-90
2022/04/05 13:34:25;;;;;;;7.23;2.37;;;;;;;16.95;nan;100676.31;5001268;28;20502;-90
2022/04/05 13:36:54;;;;;;;6.00;1.80;;;;;;;17.00;nan;100690.25;5016064;28;20915;-88
2022/04/05 13:39:25;;;;;;;5.80;2.40;;;;;;;16.96;nan;100688.19;5015196;28;20533;-87
2022/04/05 13:41:54;;;;;;;11.67;4.40;;;;;;;17.00;nan;100679.22;5001370;28;20975;-87
2022/04/05 13:44:25;;;;;;;16.33;6.00;;;;;;;17.15;nan;100681.50;4982364;28;20458;-90
2022/04/05 13:47:12;;;;;;;11.60;4.53;;;;;;;17.27;nan;100685.97;5014036;28;20862;-89
2022/04/05 13:49:41;;;;;;;19.60;5.50;;;;;;;17.31;nan;100693.78;5013910;28;20452;-89
2022/04/05 13:52:10;;;;;;;17.57;5.70;;;;;;;17.22;nan;100677.56;4999043;28;20444;-89
2022/04/05 13:55:04;;;;;;;19.40;11.60;;;;;;;17.09;nan;100688.84;5015258;28;20881;-88
2022/04/05 13:57:33;;;;;;;20.60;10.20;;;;;;;16.91;nan;100689.78;4981240;28;20459;-90
2022/04/05 14:00:02;;;;;;;10.97;5.83;;;;;;;16.63;nan;100678.53;4997076;28;20480;-88
2022/04/05 14:02:30;;;;;;;10.73;4.10;;;;;;;16.44;nan;100688.75;5002034;28;20454;-88
2022/04/05 14:04:58;;;;;;;30.43;15.27;;;;;;;16.23;nan;100695.59;5021935;28;20455;-89
2022/04/05 14:07:26;;;;;;;9.77;5.20;;;;;;;16.03;nan;100692.25;5019032;28;20456;-88
2022/04/05 14:09:54;;;;;;;23.93;11.90;;;;;;;15.89;nan;100694.34;5012089;28;20961;-87
2022/04/05 14:12:31;;;;;;;27.00;13.00;;;;;;;15.84;nan;100694.19;5033259;28;20846;-89
2022/04/05 14:14:59;;;;;;;16.13;5.60;;;;;;;15.87;nan;100702.00;5009333;28;20523;-89
2022/04/05 14:17:26;;;;;;;14.37;4.70;;;;;;;15.96;nan;100682.41;4996548;28;20448;-89
2022/04/05 14:19:54;;;;;;;10.00;3.87;;;;;;;16.16;nan;100689.31;5007890;28;20486;-89